LPPTLXGB

Guest
Details From LPPT - Lisboa
To LXGB - Gibraltar
Flight Number -
Tags generated
Created
Modified
Stats Distance 246 nm / 456 km
Max Altitude 29,800 ft / 9,083 m
Waypoints 5
Social Downloads 14
Likes 0
Share VATSIM

Download

Looking for another format? Having issues loading an existing format? Contact us
Advertisement - Login to hide

Notes

Basic altitude profile: - Ascent Rate: 2500ft/min - Ascent Speed: 250kts - Cruise Altitude: 35000ft - Cruise Speed: 420kts - Descent Rate: 1500ft/min - Descent Speed: 250kts Options: - Use NATs: yes - Use PACOTS: yes - Use low airways: yes - Use high airways: yes

Route

LPPT MARIM ALIRO T101 NAPES LXGB

ID Type Via Altitude Latitude Longitude Leg Dist Tot Dist Heading (true) Name
O LPPT APT - 0 ft / 0 m 38.77856˚ -9.13515˚ - 0 nm - Lisboa
MARIM FIX - 29,800 ft / 9,083 m 37.41667˚ -7.84111˚ 102 nm 102 nm 143° / 144° -
ALIRO FIX - 25,000 ft / 7,620 m 37.24583˚ -7.42861˚ 22 nm 124 nm 117° / 118° -
NAPES FIX T101 (AWY-LO) 21,900 ft / 6,675 m 37.19611˚ -7.03028˚ 19 nm 143 nm 99° / 99° -
O LXGB APT - 0 ft / 0 m 36.15121˚ -5.34966˚ 102 nm 246 nm 127° / 128° Gibraltar

Altitude Profile

Advertisement - Login to hide

Weather


0- 5 10 15 20 25 30 35+ Temperature / ° C

Clouds and Precipitation
Forecast for 2017-12-17 00:00 UTC. Updated 2 hours ago

Ground ~20,000 ft ~40,000 ft Winds

LPPT

Details ICAO LPPT (LIS)
Name Lisboa
Region Portugal
Timezone Europe/Lisbon (UTC+0.0)
Stats Elevation 374 ft / 114 m (AMSL)
Location 38.778559° -9.135146°
Runways 2
Magnetic Variation 2.364° W

METAR

LPPT 162030Z 35012KT CAVOK 09/04 Q1026

Decode

TAF

TAF LPPT 161700Z 1618/1724 35008KT CAVOK BECMG 1700/1702 03008KT BECMG 1716/1718 35008KT

Decode

Departure Runways

ID Width Length Bearing (true) Bearing (mag) Surface Threshold Offset Overrun Length
03 148 ft / 45 m 12,518 ft / 3,815 m 22.70° 25.06° Asphalt 296 ft / 90 m 0 ft / 0 m
17 148 ft / 45 m 7,922 ft / 2,415 m 168.38° 170.74° Asphalt 0 ft / 0 m 0 ft / 0 m
21 148 ft / 45 m 12,518 ft / 3,815 m 202.72° 205.08° Asphalt 1,969 ft / 600 m 0 ft / 0 m
35 148 ft / 45 m 7,922 ft / 2,415 m 348.38° 350.74° Asphalt 492 ft / 150 m 0 ft / 0 m

LXGB

Details ICAO LXGB (GIB)
Name Gibraltar
Region Gibralter
Timezone Europe/Gibraltar (UTC+1.0)
Stats Elevation 15 ft / 5 m (AMSL)
Location 36.151209° -5.349664°
Runways 1
Magnetic Variation 1.122° W

METAR

LXGB 161950Z AUTO 03006KT 9999 // BKN022/// 14/11 Q1022

Decode

TAF

Not found

Destination Runways

ID Width Length Bearing (true) Bearing (mag) Surface Threshold Offset Overrun Length
27 151 ft / 46 m 5,992 ft / 1,826 m 267.56° 268.68° Asphalt 367 ft / 112 m 89 ft / 27 m
9 151 ft / 46 m 5,992 ft / 1,826 m 87.54° 88.66° Asphalt 299 ft / 91 m 52 ft / 16 m

Popular Alternatives